DURO2: Washita River Durwood, OK

Data processed at Fri Mar 09 2018 23:36


All information presented herein is the property of the government of the United States of America and may be revised or deleted at any time without prior notice.
Dissemination of this information without the expressed written consent of the Public Affairs Office, Tulsa District U.S. Army Corps of Engineers is strictly prohibited.
These data are gathered electronically and, as presented, have not undergone any form of quality control. These data are not guaranteed to be valid or correct.
Go to home page.
Go to station list.

Upstream stations:

Downstream station:
Previous Day
Next Day
Current Day
    
SHEF ID:       DURO2     Washita River near Dickson, OK
STATION TYPE:  

               PRECIP PRECIP(A)     STAGE  RIV-FLOW  BAT-LOAD
                   in        in        ft       cfs      volt
              Ccp-Rev   Ccp-Rev   Ccp-Rev   Ccp-Rev   Ccp-Rev
(US/Central)
03/07 00:00      0.00      ----      8.67      1886     12.41
03/07 01:00      0.00      ----      8.58      1815     12.33
03/07 02:00      0.00      ----      8.52      1768     12.33
03/07 03:00      0.00      ----      8.49      1745     12.25
03/07 04:00      0.00      ----      8.45      1715     12.25
03/07 05:00      0.00      ----      8.43      1699     12.25
03/07 06:00      0.00      ----      8.42      1692     12.17
03/07 07:00      0.00      ----      8.40      1677     12.17
03/07 08:00      0.00      ----      8.39      1669     13.13
03/07 09:00      0.00      ----      8.37      1654     12.97
03/07 10:00      0.00      ----      8.38      1661     12.89
03/07 11:00      0.00      ----      8.36      1646     12.73
03/07 12:00      0.00      ----      8.31      1609     12.73
03/07 13:00      0.00      ----      8.30      1602     12.73
03/07 14:00      0.00      ----      8.31      1609     12.65
03/07 15:00      0.00      ----      8.27      1579     12.65
03/07 16:00      0.00      ----      8.25      1565     12.65
03/07 17:00      0.00      ----      8.26      1572     12.65
03/07 18:00      0.00      ----      8.24      1557     12.57
03/07 19:00      0.00      ----      8.23      1550     12.49
03/07 20:00      0.00      ----      8.21      1535     12.49
03/07 21:00      0.00      ----      8.21      1535     12.41
03/07 22:00      0.00      ----      8.18      1513     12.41
03/07 23:00      0.00      ----      8.17      1506     12.41